sensor_id;sensor_type;location;lat;lon;timestamp;P1;durP1;ratioP1;P2;durP2;ratioP2
22881;SDS011;11608;50.894;5.296;2023-08-20T00:00:25;31.73;;;28.90;;
22881;SDS011;11608;50.894;5.296;2023-08-20T00:03:00;32.40;;;29.48;;
22881;SDS011;11608;50.894;5.296;2023-08-20T00:05:28;34.45;;;28.75;;
22881;SDS011;11608;50.894;5.296;2023-08-20T00:07:55;31.23;;;28.52;;
22881;SDS011;11608;50.894;5.296;2023-08-20T00:10:21;32.70;;;29.88;;
22881;SDS011;11608;50.894;5.296;2023-08-20T00:12:47;32.17;;;29.25;;
22881;SDS011;11608;50.894;5.296;2023-08-20T00:15:13;33.35;;;30.20;;
22881;SDS011;11608;50.894;5.296;2023-08-20T00:17:39;34.33;;;30.77;;
22881;SDS011;11608;50.894;5.296;2023-08-20T00:20:07;32.47;;;29.45;;
22881;SDS011;11608;50.894;5.296;2023-08-20T00:22:40;31.60;;;28.90;;
22881;SDS011;11608;50.894;5.296;2023-08-20T00:25:10;31.67;;;28.67;;
22881;SDS011;11608;50.894;5.296;2023-08-20T00:27:37;30.70;;;27.90;;
22881;SDS011;11608;50.894;5.296;2023-08-20T00:30:03;31.80;;;28.88;;
22881;SDS011;11608;50.894;5.296;2023-08-20T00:32:29;30.85;;;27.98;;
22881;SDS011;11608;50.894;5.296;2023-08-20T00:34:55;31.38;;;28.65;;
22881;SDS011;11608;50.894;5.296;2023-08-20T00:37:21;30.42;;;27.40;;
22881;SDS011;11608;50.894;5.296;2023-08-20T00:39:47;31.38;;;28.45;;
22881;SDS011;11608;50.894;5.296;2023-08-20T00:42:13;32.67;;;29.45;;
22881;SDS011;11608;50.894;5.296;2023-08-20T00:44:39;30.80;;;27.80;;
22881;SDS011;11608;50.894;5.296;2023-08-20T00:47:15;30.60;;;27.83;;
22881;SDS011;11608;50.894;5.296;2023-08-20T00:49:42;30.25;;;27.35;;
22881;SDS011;11608;50.894;5.296;2023-08-20T00:52:08;31.35;;;28.17;;
22881;SDS011;11608;50.894;5.296;2023-08-20T00:54:34;30.95;;;27.70;;
22881;SDS011;11608;50.894;5.296;2023-08-20T00:57:01;32.00;;;28.73;;
22881;SDS011;11608;50.894;5.296;2023-08-20T00:59:28;30.58;;;27.70;;
22881;SDS011;11608;50.894;5.296;2023-08-20T01:01:55;29.90;;;26.95;;
22881;SDS011;11608;50.894;5.296;2023-08-20T01:04:21;30.48;;;27.50;;
22881;SDS011;11608;50.894;5.296;2023-08-20T01:12:06;29.67;;;27.00;;
22881;SDS011;11608;50.894;5.296;2023-08-20T01:14:32;30.45;;;27.73;;
22881;SDS011;11608;50.894;5.296;2023-08-20T01:16:58;30.20;;;27.50;;
22881;SDS011;11608;50.894;5.296;2023-08-20T01:19:24;31.35;;;28.40;;
22881;SDS011;11608;50.894;5.296;2023-08-20T01:29:58;29.92;;;27.15;;
22881;SDS011;11608;50.894;5.296;2023-08-20T01:32:25;30.58;;;27.63;;
22881;SDS011;11608;50.894;5.296;2023-08-20T01:34:52;29.90;;;27.27;;
22881;SDS011;11608;50.894;5.296;2023-08-20T01:37:18;29.00;;;26.42;;
22881;SDS011;11608;50.894;5.296;2023-08-20T01:39:44;28.33;;;25.75;;
22881;SDS011;11608;50.894;5.296;2023-08-20T01:42:10;28.05;;;25.55;;
22881;SDS011;11608;50.894;5.296;2023-08-20T01:44:36;29.33;;;26.40;;
22881;SDS011;11608;50.894;5.296;2023-08-20T01:47:02;30.17;;;27.15;;
22881;SDS011;11608;50.894;5.296;2023-08-20T01:49:31;28.52;;;25.70;;
22881;SDS011;11608;50.894;5.296;2023-08-20T01:51:57;26.92;;;24.65;;
22881;SDS011;11608;50.894;5.296;2023-08-20T01:54:23;28.38;;;25.80;;
22881;SDS011;11608;50.894;5.296;2023-08-20T01:56:49;27.67;;;25.58;;
22881;SDS011;11608;50.894;5.296;2023-08-20T01:59:15;28.42;;;25.65;;
22881;SDS011;11608;50.894;5.296;2023-08-20T02:01:41;27.63;;;25.13;;
22881;SDS011;11608;50.894;5.296;2023-08-20T02:04:07;27.95;;;25.45;;
22881;SDS011;11608;50.894;5.296;2023-08-20T02:06:33;27.45;;;25.15;;
22881;SDS011;11608;50.894;5.296;2023-08-20T02:08:59;27.85;;;25.23;;
22881;SDS011;11608;50.894;5.296;2023-08-20T02:11:25;28.08;;;25.38;;
22881;SDS011;11608;50.894;5.296;2023-08-20T02:13:51;27.27;;;24.90;;
22881;SDS011;11608;50.894;5.296;2023-08-20T02:16:17;27.67;;;25.23;;
22881;SDS011;11608;50.894;5.296;2023-08-20T02:18:43;27.73;;;25.15;;
22881;SDS011;11608;50.894;5.296;2023-08-20T02:21:09;27.98;;;25.17;;
22881;SDS011;11608;50.894;5.296;2023-08-20T02:23:35;27.35;;;24.63;;
22881;SDS011;11608;50.894;5.296;2023-08-20T02:26:02;26.75;;;24.15;;
22881;SDS011;11608;50.894;5.296;2023-08-20T02:28:28;27.95;;;25.15;;
22881;SDS011;11608;50.894;5.296;2023-08-20T02:30:54;27.38;;;24.85;;
22881;SDS011;11608;50.894;5.296;2023-08-20T02:33:22;27.23;;;24.52;;
22881;SDS011;11608;50.894;5.296;2023-08-20T02:35:48;27.88;;;25.17;;
22881;SDS011;11608;50.894;5.296;2023-08-20T02:38:14;27.98;;;25.25;;
22881;SDS011;11608;50.894;5.296;2023-08-20T02:40:43;27.27;;;24.52;;
22881;SDS011;11608;50.894;5.296;2023-08-20T02:43:09;26.42;;;24.27;;
22881;SDS011;11608;50.894;5.296;2023-08-20T02:45:42;27.20;;;24.60;;
22881;SDS011;11608;50.894;5.296;2023-08-20T02:48:08;28.25;;;25.20;;
22881;SDS011;11608;50.894;5.296;2023-08-20T02:50:34;28.05;;;25.50;;
22881;SDS011;11608;50.894;5.296;2023-08-20T02:53:01;27.77;;;25.33;;
22881;SDS011;11608;50.894;5.296;2023-08-20T02:55:28;28.13;;;25.33;;
22881;SDS011;11608;50.894;5.296;2023-08-20T02:57:54;27.52;;;25.08;;
22881;SDS011;11608;50.894;5.296;2023-08-20T03:00:20;27.88;;;25.38;;
22881;SDS011;11608;50.894;5.296;2023-08-20T03:02:47;27.70;;;25.20;;
22881;SDS011;11608;50.894;5.296;2023-08-20T03:05:13;28.25;;;25.63;;
22881;SDS011;11608;50.894;5.296;2023-08-20T03:07:39;27.35;;;24.95;;
22881;SDS011;11608;50.894;5.296;2023-08-20T03:10:05;27.85;;;25.25;;
22881;SDS011;11608;50.894;5.296;2023-08-20T03:12:31;28.88;;;26.02;;
22881;SDS011;11608;50.894;5.296;2023-08-20T03:14:58;28.63;;;26.00;;
22881;SDS011;11608;50.894;5.296;2023-08-20T03:17:24;27.85;;;25.25;;
22881;SDS011;11608;50.894;5.296;2023-08-20T03:19:57;28.45;;;25.75;;
22881;SDS011;11608;50.894;5.296;2023-08-20T03:22:24;27.90;;;25.40;;
22881;SDS011;11608;50.894;5.296;2023-08-20T03:24:50;26.70;;;24.20;;
22881;SDS011;11608;50.894;5.296;2023-08-20T03:27:16;26.95;;;24.20;;
22881;SDS011;11608;50.894;5.296;2023-08-20T03:29:42;27.75;;;24.85;;
22881;SDS011;11608;50.894;5.296;2023-08-20T03:32:09;26.95;;;24.73;;
22881;SDS011;11608;50.894;5.296;2023-08-20T03:34:35;27.92;;;25.20;;
22881;SDS011;11608;50.894;5.296;2023-08-20T03:37:01;27.77;;;24.90;;
22881;SDS011;11608;50.894;5.296;2023-08-20T03:39:27;27.98;;;25.20;;
22881;SDS011;11608;50.894;5.296;2023-08-20T03:41:53;27.58;;;25.13;;
22881;SDS011;11608;50.894;5.296;2023-08-20T03:44:19;29.85;;;26.85;;
22881;SDS011;11608;50.894;5.296;2023-08-20T03:46:46;27.48;;;25.33;;
22881;SDS011;11608;50.894;5.296;2023-08-20T03:49:12;27.73;;;25.17;;
22881;SDS011;11608;50.894;5.296;2023-08-20T03:51:38;27.80;;;25.30;;
22881;SDS011;11608;50.894;5.296;2023-08-20T03:54:04;26.90;;;24.45;;
22881;SDS011;11608;50.894;5.296;2023-08-20T03:56:30;26.83;;;24.27;;
22881;SDS011;11608;50.894;5.296;2023-08-20T03:58:56;27.00;;;24.52;;
22881;SDS011;11608;50.894;5.296;2023-08-20T04:01:22;28.38;;;25.80;;
22881;SDS011;11608;50.894;5.296;2023-08-20T04:03:48;27.65;;;25.20;;
22881;SDS011;11608;50.894;5.296;2023-08-20T04:06:14;27.58;;;25.23;;
22881;SDS011;11608;50.894;5.296;2023-08-20T04:08:40;27.95;;;25.33;;
22881;SDS011;11608;50.894;5.296;2023-08-20T04:11:07;27.20;;;24.65;;
22881;SDS011;11608;50.894;5.296;2023-08-20T04:13:34;27.05;;;24.50;;
22881;SDS011;11608;50.894;5.296;2023-08-20T04:16:00;27.33;;;24.80;;
22881;SDS011;11608;50.894;5.296;2023-08-20T04:18:26;27.13;;;24.63;;
22881;SDS011;11608;50.894;5.296;2023-08-20T04:20:52;28.10;;;25.30;;
22881;SDS011;11608;50.894;5.296;2023-08-20T04:23:21;26.02;;;24.02;;
22881;SDS011;11608;50.894;5.296;2023-08-20T04:25:47;27.83;;;25.50;;
22881;SDS011;11608;50.894;5.296;2023-08-20T04:28:13;26.63;;;24.45;;
22881;SDS011;11608;50.894;5.296;2023-08-20T04:30:39;28.10;;;25.42;;
22881;SDS011;11608;50.894;5.296;2023-08-20T04:33:05;27.58;;;24.67;;
22881;SDS011;11608;50.894;5.296;2023-08-20T04:35:31;27.13;;;25.02;;
22881;SDS011;11608;50.894;5.296;2023-08-20T04:37:57;26.58;;;24.27;;
22881;SDS011;11608;50.894;5.296;2023-08-20T04:40:23;26.92;;;24.80;;
22881;SDS011;11608;50.894;5.296;2023-08-20T04:42:50;27.23;;;24.73;;
22881;SDS011;11608;50.894;5.296;2023-08-20T04:45:17;25.98;;;23.75;;
22881;SDS011;11608;50.894;5.296;2023-08-20T04:47:44;27.50;;;24.75;;
22881;SDS011;11608;50.894;5.296;2023-08-20T04:50:10;28.00;;;25.25;;
22881;SDS011;11608;50.894;5.296;2023-08-20T04:52:36;26.45;;;23.98;;
22881;SDS011;11608;50.894;5.296;2023-08-20T04:55:03;26.85;;;24.33;;
22881;SDS011;11608;50.894;5.296;2023-08-20T04:57:29;26.63;;;24.33;;
22881;SDS011;11608;50.894;5.296;2023-08-20T04:59:55;27.15;;;24.58;;
22881;SDS011;11608;50.894;5.296;2023-08-20T05:02:21;26.13;;;23.83;;
22881;SDS011;11608;50.894;5.296;2023-08-20T05:04:47;27.73;;;25.13;;
22881;SDS011;11608;50.894;5.296;2023-08-20T05:07:13;26.90;;;24.55;;
22881;SDS011;11608;50.894;5.296;2023-08-20T05:09:39;27.60;;;24.95;;
22881;SDS011;11608;50.894;5.296;2023-08-20T05:12:05;26.90;;;24.40;;
22881;SDS011;11608;50.894;5.296;2023-08-20T05:14:31;27.13;;;24.50;;
22881;SDS011;11608;50.894;5.296;2023-08-20T05:16:57;27.45;;;24.88;;
22881;SDS011;11608;50.894;5.296;2023-08-20T05:19:23;26.67;;;24.35;;
22881;SDS011;11608;50.894;5.296;2023-08-20T05:21:49;26.95;;;24.55;;
22881;SDS011;11608;50.894;5.296;2023-08-20T05:24:16;27.90;;;25.42;;
22881;SDS011;11608;50.894;5.296;2023-08-20T05:26:42;26.95;;;24.42;;
22881;SDS011;11608;50.894;5.296;2023-08-20T05:29:08;26.88;;;24.38;;
22881;SDS011;11608;50.894;5.296;2023-08-20T05:31:34;27.35;;;24.85;;
22881;SDS011;11608;50.894;5.296;2023-08-20T05:34:00;27.17;;;24.70;;
22881;SDS011;11608;50.894;5.296;2023-08-20T05:36:26;27.10;;;24.55;;
22881;SDS011;11608;50.894;5.296;2023-08-20T05:38:52;25.95;;;23.75;;
22881;SDS011;11608;50.894;5.296;2023-08-20T05:41:18;27.80;;;25.02;;
22881;SDS011;11608;50.894;5.296;2023-08-20T05:43:44;27.27;;;24.75;;
22881;SDS011;11608;50.894;5.296;2023-08-20T05:46:10;28.50;;;25.60;;
22881;SDS011;11608;50.894;5.296;2023-08-20T05:48:36;27.52;;;25.00;;
22881;SDS011;11608;50.894;5.296;2023-08-20T05:51:02;27.73;;;25.00;;
22881;SDS011;11608;50.894;5.296;2023-08-20T05:53:28;26.80;;;24.40;;
22881;SDS011;11608;50.894;5.296;2023-08-20T05:55:54;28.48;;;25.83;;
22881;SDS011;11608;50.894;5.296;2023-08-20T05:58:20;27.70;;;24.80;;
22881;SDS011;11608;50.894;5.296;2023-08-20T06:00:46;27.48;;;24.85;;
22881;SDS011;11608;50.894;5.296;2023-08-20T06:03:13;27.73;;;25.00;;
22881;SDS011;11608;50.894;5.296;2023-08-20T06:05:39;27.90;;;25.02;;
22881;SDS011;11608;50.894;5.296;2023-08-20T06:08:05;28.05;;;25.40;;
22881;SDS011;11608;50.894;5.296;2023-08-20T06:10:31;27.10;;;24.52;;
22881;SDS011;11608;50.894;5.296;2023-08-20T06:12:57;29.02;;;25.98;;
22881;SDS011;11608;50.894;5.296;2023-08-20T06:15:23;27.60;;;25.10;;
22881;SDS011;11608;50.894;5.296;2023-08-20T06:17:49;26.52;;;23.92;;
22881;SDS011;11608;50.894;5.296;2023-08-20T06:20:15;26.27;;;23.80;;
22881;SDS011;11608;50.894;5.296;2023-08-20T06:22:43;26.60;;;23.85;;
22881;SDS011;11608;50.894;5.296;2023-08-20T06:25:09;26.20;;;23.77;;
22881;SDS011;11608;50.894;5.296;2023-08-20T06:27:35;25.67;;;23.35;;
22881;SDS011;11608;50.894;5.296;2023-08-20T06:30:01;24.98;;;22.73;;
22881;SDS011;11608;50.894;5.296;2023-08-20T06:32:27;24.60;;;22.50;;
22881;SDS011;11608;50.894;5.296;2023-08-20T06:34:53;29.20;;;22.88;;
22881;SDS011;11608;50.894;5.296;2023-08-20T06:37:19;25.25;;;23.02;;
22881;SDS011;11608;50.894;5.296;2023-08-20T06:39:45;24.95;;;22.80;;
22881;SDS011;11608;50.894;5.296;2023-08-20T06:42:11;25.98;;;23.25;;
22881;SDS011;11608;50.894;5.296;2023-08-20T06:44:37;25.95;;;23.20;;
22881;SDS011;11608;50.894;5.296;2023-08-20T06:47:03;25.45;;;22.90;;
22881;SDS011;11608;50.894;5.296;2023-08-20T06:49:29;25.33;;;22.02;;
22881;SDS011;11608;50.894;5.296;2023-08-20T06:51:55;24.02;;;21.95;;
22881;SDS011;11608;50.894;5.296;2023-08-20T06:54:22;23.92;;;21.55;;
22881;SDS011;11608;50.894;5.296;2023-08-20T06:56:48;24.42;;;22.05;;
22881;SDS011;11608;50.894;5.296;2023-08-20T06:59:14;24.58;;;22.13;;
22881;SDS011;11608;50.894;5.296;2023-08-20T07:01:41;24.63;;;22.30;;
22881;SDS011;11608;50.894;5.296;2023-08-20T07:04:07;24.83;;;22.40;;
22881;SDS011;11608;50.894;5.296;2023-08-20T07:06:33;24.10;;;21.92;;
22881;SDS011;11608;50.894;5.296;2023-08-20T07:08:59;25.10;;;22.50;;
22881;SDS011;11608;50.894;5.296;2023-08-20T07:11:25;25.10;;;22.83;;
22881;SDS011;11608;50.894;5.296;2023-08-20T07:13:51;23.98;;;21.73;;
22881;SDS011;11608;50.894;5.296;2023-08-20T07:16:17;24.83;;;22.50;;
22881;SDS011;11608;50.894;5.296;2023-08-20T07:18:43;23.77;;;21.77;;
22881;SDS011;11608;50.894;5.296;2023-08-20T07:21:09;23.80;;;21.60;;
22881;SDS011;11608;50.894;5.296;2023-08-20T07:23:35;23.92;;;21.52;;
22881;SDS011;11608;50.894;5.296;2023-08-20T07:26:08;24.55;;;22.38;;
22881;SDS011;11608;50.894;5.296;2023-08-20T07:28:35;23.40;;;21.25;;
22881;SDS011;11608;50.894;5.296;2023-08-20T07:31:20;24.63;;;22.15;;
22881;SDS011;11608;50.894;5.296;2023-08-20T07:33:46;26.92;;;22.30;;
22881;SDS011;11608;50.894;5.296;2023-08-20T07:36:13;23.13;;;21.13;;
22881;SDS011;11608;50.894;5.296;2023-08-20T07:38:39;23.83;;;21.58;;
22881;SDS011;11608;50.894;5.296;2023-08-20T07:41:07;24.20;;;21.73;;
22881;SDS011;11608;50.894;5.296;2023-08-20T07:43:33;23.52;;;21.13;;
22881;SDS011;11608;50.894;5.296;2023-08-20T07:45:59;26.52;;;21.65;;
22881;SDS011;11608;50.894;5.296;2023-08-20T07:48:25;23.77;;;21.40;;
22881;SDS011;11608;50.894;5.296;2023-08-20T07:50:51;23.83;;;21.40;;
22881;SDS011;11608;50.894;5.296;2023-08-20T07:53:17;23.38;;;21.17;;
22881;SDS011;11608;50.894;5.296;2023-08-20T07:55:44;23.45;;;21.25;;
22881;SDS011;11608;50.894;5.296;2023-08-20T07:58:10;24.27;;;21.70;;
22881;SDS011;11608;50.894;5.296;2023-08-20T08:00:36;23.77;;;21.48;;
22881;SDS011;11608;50.894;5.296;2023-08-20T08:03:02;23.83;;;21.48;;
22881;SDS011;11608;50.894;5.296;2023-08-20T08:05:28;22.98;;;20.80;;
22881;SDS011;11608;50.894;5.296;2023-08-20T08:07:54;22.92;;;20.83;;
22881;SDS011;11608;50.894;5.296;2023-08-20T08:10:20;23.77;;;21.40;;
22881;SDS011;11608;50.894;5.296;2023-08-20T08:12:46;24.15;;;21.90;;
22881;SDS011;11608;50.894;5.296;2023-08-20T08:15:12;23.90;;;21.40;;
22881;SDS011;11608;50.894;5.296;2023-08-20T08:17:39;24.38;;;21.92;;
22881;SDS011;11608;50.894;5.296;2023-08-20T08:20:05;23.73;;;21.35;;
22881;SDS011;11608;50.894;5.296;2023-08-20T08:22:31;23.20;;;20.90;;
22881;SDS011;11608;50.894;5.296;2023-08-20T08:24:57;23.02;;;20.80;;
22881;SDS011;11608;50.894;5.296;2023-08-20T08:27:23;23.92;;;21.42;;
22881;SDS011;11608;50.894;5.296;2023-08-20T08:29:50;24.55;;;21.25;;
22881;SDS011;11608;50.894;5.296;2023-08-20T08:32:16;23.85;;;21.55;;
22881;SDS011;11608;50.894;5.296;2023-08-20T08:34:42;25.27;;;22.48;;
22881;SDS011;11608;50.894;5.296;2023-08-20T08:37:08;24.42;;;21.75;;
22881;SDS011;11608;50.894;5.296;2023-08-20T08:39:34;25.00;;;22.67;;
22881;SDS011;11608;50.894;5.296;2023-08-20T08:42:01;25.70;;;22.05;;
22881;SDS011;11608;50.894;5.296;2023-08-20T08:44:29;23.77;;;21.73;;
22881;SDS011;11608;50.894;5.296;2023-08-20T08:46:57;24.10;;;21.65;;
22881;SDS011;11608;50.894;5.296;2023-08-20T08:49:23;23.73;;;21.45;;
22881;SDS011;11608;50.894;5.296;2023-08-20T08:51:50;24.17;;;21.88;;
22881;SDS011;11608;50.894;5.296;2023-08-20T08:54:17;24.83;;;22.42;;
22881;SDS011;11608;50.894;5.296;2023-08-20T08:56:43;23.63;;;21.30;;
22881;SDS011;11608;50.894;5.296;2023-08-20T08:59:09;23.30;;;21.13;;
22881;SDS011;11608;50.894;5.296;2023-08-20T09:01:38;23.20;;;20.95;;
22881;SDS011;11608;50.894;5.296;2023-08-20T09:04:05;23.35;;;21.10;;
22881;SDS011;11608;50.894;5.296;2023-08-20T09:06:44;25.05;;;22.42;;
22881;SDS011;11608;50.894;5.296;2023-08-20T09:09:11;24.88;;;22.25;;
22881;SDS011;11608;50.894;5.296;2023-08-20T09:11:37;25.23;;;22.58;;
22881;SDS011;11608;50.894;5.296;2023-08-20T09:14:04;23.88;;;21.27;;
22881;SDS011;11608;50.894;5.296;2023-08-20T09:16:30;24.15;;;21.75;;
22881;SDS011;11608;50.894;5.296;2023-08-20T09:18:58;23.20;;;20.98;;
22881;SDS011;11608;50.894;5.296;2023-08-20T09:21:28;23.50;;;20.98;;
22881;SDS011;11608;50.894;5.296;2023-08-20T09:23:54;24.52;;;21.95;;
22881;SDS011;11608;50.894;5.296;2023-08-20T09:26:20;23.38;;;21.10;;
22881;SDS011;11608;50.894;5.296;2023-08-20T09:28:47;23.33;;;21.10;;
22881;SDS011;11608;50.894;5.296;2023-08-20T09:31:13;23.05;;;20.70;;
22881;SDS011;11608;50.894;5.296;2023-08-20T09:33:49;23.00;;;20.92;;
22881;SDS011;11608;50.894;5.296;2023-08-20T09:36:16;23.40;;;21.10;;
22881;SDS011;11608;50.894;5.296;2023-08-20T09:38:42;23.17;;;20.77;;
22881;SDS011;11608;50.894;5.296;2023-08-20T09:41:08;23.83;;;21.38;;
22881;SDS011;11608;50.894;5.296;2023-08-20T09:43:38;22.65;;;20.40;;
22881;SDS011;11608;50.894;5.296;2023-08-20T09:46:07;23.35;;;20.90;;
22881;SDS011;11608;50.894;5.296;2023-08-20T09:48:36;22.63;;;20.50;;
22881;SDS011;11608;50.894;5.296;2023-08-20T09:51:04;22.48;;;20.30;;
22881;SDS011;11608;50.894;5.296;2023-08-20T09:56:00;24.30;;;20.55;;
22881;SDS011;11608;50.894;5.296;2023-08-20T09:58:29;22.65;;;20.35;;
22881;SDS011;11608;50.894;5.296;2023-08-20T10:00:55;21.85;;;19.83;;
22881;SDS011;11608;50.894;5.296;2023-08-20T10:03:22;22.20;;;19.90;;
22881;SDS011;11608;50.894;5.296;2023-08-20T10:05:49;22.75;;;20.63;;
22881;SDS011;11608;50.894;5.296;2023-08-20T10:08:15;23.17;;;20.80;;
22881;SDS011;11608;50.894;5.296;2023-08-20T10:10:43;23.27;;;20.67;;
22881;SDS011;11608;50.894;5.296;2023-08-20T10:13:09;23.23;;;20.67;;
22881;SDS011;11608;50.894;5.296;2023-08-20T10:15:35;21.38;;;19.33;;
22881;SDS011;11608;50.894;5.296;2023-08-20T10:18:02;23.20;;;20.77;;
22881;SDS011;11608;50.894;5.296;2023-08-20T10:20:29;21.15;;;19.15;;
22881;SDS011;11608;50.894;5.296;2023-08-20T10:22:58;21.65;;;19.55;;
22881;SDS011;11608;50.894;5.296;2023-08-20T10:25:25;22.40;;;20.00;;
22881;SDS011;11608;50.894;5.296;2023-08-20T10:27:52;22.40;;;20.23;;
22881;SDS011;11608;50.894;5.296;2023-08-20T10:30:19;21.83;;;19.45;;
22881;SDS011;11608;50.894;5.296;2023-08-20T10:32:50;22.08;;;19.80;;
22881;SDS011;11608;50.894;5.296;2023-08-20T10:35:17;21.05;;;19.35;;
22881;SDS011;11608;50.894;5.296;2023-08-20T10:43:46;21.40;;;19.40;;
22881;SDS011;11608;50.894;5.296;2023-08-20T10:46:15;21.58;;;19.50;;
22881;SDS011;11608;50.894;5.296;2023-08-20T10:48:42;21.25;;;19.38;;
22881;SDS011;11608;50.894;5.296;2023-08-20T10:51:18;21.23;;;19.40;;
22881;SDS011;11608;50.894;5.296;2023-08-20T11:01:49;20.98;;;19.05;;
22881;SDS011;11608;50.894;5.296;2023-08-20T11:04:17;21.67;;;19.58;;
22881;SDS011;11608;50.894;5.296;2023-08-20T11:06:46;21.60;;;19.60;;
22881;SDS011;11608;50.894;5.296;2023-08-20T11:09:15;21.35;;;19.45;;
22881;SDS011;11608;50.894;5.296;2023-08-20T11:11:42;20.92;;;18.92;;
22881;SDS011;11608;50.894;5.296;2023-08-20T11:14:12;21.50;;;19.38;;
22881;SDS011;11608;50.894;5.296;2023-08-20T11:16:42;20.80;;;18.90;;
22881;SDS011;11608;50.894;5.296;2023-08-20T11:19:12;21.40;;;19.30;;
22881;SDS011;11608;50.894;5.296;2023-08-20T11:21:39;20.58;;;18.58;;
22881;SDS011;11608;50.894;5.296;2023-08-20T11:24:06;21.13;;;18.92;;
22881;SDS011;11608;50.894;5.296;2023-08-20T11:26:32;21.58;;;19.63;;
22881;SDS011;11608;50.894;5.296;2023-08-20T11:29:08;21.60;;;19.40;;
22881;SDS011;11608;50.894;5.296;2023-08-20T11:31:37;21.00;;;19.05;;
22881;SDS011;11608;50.894;5.296;2023-08-20T11:34:04;21.00;;;19.00;;
22881;SDS011;11608;50.894;5.296;2023-08-20T11:36:30;20.48;;;18.75;;
22881;SDS011;11608;50.894;5.296;2023-08-20T11:38:56;20.73;;;18.80;;
22881;SDS011;11608;50.894;5.296;2023-08-20T11:41:23;21.40;;;19.60;;
22881;SDS011;11608;50.894;5.296;2023-08-20T11:43:50;20.02;;;18.35;;
22881;SDS011;11608;50.894;5.296;2023-08-20T11:46:18;20.50;;;18.77;;
22881;SDS011;11608;50.894;5.296;2023-08-20T11:51:39;20.92;;;19.00;;
22881;SDS011;11608;50.894;5.296;2023-08-20T11:54:05;21.30;;;19.42;;
22881;SDS011;11608;50.894;5.296;2023-08-20T11:56:33;20.77;;;18.90;;
22881;SDS011;11608;50.894;5.296;2023-08-20T11:58:59;20.92;;;19.20;;
22881;SDS011;11608;50.894;5.296;2023-08-20T12:01:29;20.25;;;18.70;;
22881;SDS011;11608;50.894;5.296;2023-08-20T12:04:00;19.95;;;18.45;;
22881;SDS011;11608;50.894;5.296;2023-08-20T12:06:26;20.95;;;19.05;;
22881;SDS011;11608;50.894;5.296;2023-08-20T12:08:55;20.45;;;18.58;;
22881;SDS011;11608;50.894;5.296;2023-08-20T12:11:25;21.08;;;19.13;;
22881;SDS011;11608;50.894;5.296;2023-08-20T12:13:51;20.73;;;18.98;;
22881;SDS011;11608;50.894;5.296;2023-08-20T12:16:18;20.48;;;18.75;;
22881;SDS011;11608;50.894;5.296;2023-08-20T12:18:47;20.05;;;18.45;;
22881;SDS011;11608;50.894;5.296;2023-08-20T12:21:13;20.73;;;18.73;;
22881;SDS011;11608;50.894;5.296;2023-08-20T12:23:39;20.60;;;18.80;;
22881;SDS011;11608;50.894;5.296;2023-08-20T12:26:05;20.02;;;18.40;;
22881;SDS011;11608;50.894;5.296;2023-08-20T12:28:32;20.88;;;18.77;;
22881;SDS011;11608;50.894;5.296;2023-08-20T12:30:58;20.42;;;18.80;;
22881;SDS011;11608;50.894;5.296;2023-08-20T12:33:24;20.45;;;18.58;;
22881;SDS011;11608;50.894;5.296;2023-08-20T12:35:53;20.10;;;18.35;;
22881;SDS011;11608;50.894;5.296;2023-08-20T12:38:19;21.02;;;18.95;;
22881;SDS011;11608;50.894;5.296;2023-08-20T12:40:45;20.85;;;19.00;;
22881;SDS011;11608;50.894;5.296;2023-08-20T12:43:11;19.73;;;18.20;;
22881;SDS011;11608;50.894;5.296;2023-08-20T12:45:37;20.52;;;18.80;;
22881;SDS011;11608;50.894;5.296;2023-08-20T12:48:04;19.92;;;18.42;;
22881;SDS011;11608;50.894;5.296;2023-08-20T12:50:30;20.17;;;18.38;;
22881;SDS011;11608;50.894;5.296;2023-08-20T12:52:56;19.95;;;18.25;;
22881;SDS011;11608;50.894;5.296;2023-08-20T12:55:22;20.23;;;18.40;;
22881;SDS011;11608;50.894;5.296;2023-08-20T12:57:52;19.30;;;17.80;;
22881;SDS011;11608;50.894;5.296;2023-08-20T13:00:19;20.02;;;18.27;;
22881;SDS011;11608;50.894;5.296;2023-08-20T13:02:45;20.63;;;18.90;;
22881;SDS011;11608;50.894;5.296;2023-08-20T13:05:12;20.02;;;18.35;;
22881;SDS011;11608;50.894;5.296;2023-08-20T13:07:38;20.48;;;18.67;;
22881;SDS011;11608;50.894;5.296;2023-08-20T13:10:04;20.30;;;18.60;;
22881;SDS011;11608;50.894;5.296;2023-08-20T13:12:30;19.48;;;17.98;;
22881;SDS011;11608;50.894;5.296;2023-08-20T13:14:57;20.65;;;18.73;;
22881;SDS011;11608;50.894;5.296;2023-08-20T13:17:24;21.05;;;19.17;;
22881;SDS011;11608;50.894;5.296;2023-08-20T13:19:50;20.08;;;18.52;;
22881;SDS011;11608;50.894;5.296;2023-08-20T13:22:16;20.70;;;18.98;;
22881;SDS011;11608;50.894;5.296;2023-08-20T13:24:42;20.35;;;18.65;;
22881;SDS011;11608;50.894;5.296;2023-08-20T13:27:08;19.67;;;18.17;;
22881;SDS011;11608;50.894;5.296;2023-08-20T13:29:34;20.33;;;18.63;;
22881;SDS011;11608;50.894;5.296;2023-08-20T13:32:00;20.40;;;18.55;;
22881;SDS011;11608;50.894;5.296;2023-08-20T13:34:27;20.52;;;18.73;;
22881;SDS011;11608;50.894;5.296;2023-08-20T13:36:53;20.25;;;18.55;;
22881;SDS011;11608;50.894;5.296;2023-08-20T13:39:19;20.90;;;19.20;;
22881;SDS011;11608;50.894;5.296;2023-08-20T13:41:46;20.58;;;18.88;;
22881;SDS011;11608;50.894;5.296;2023-08-20T13:44:12;20.05;;;18.35;;
22881;SDS011;11608;50.894;5.296;2023-08-20T13:46:38;20.10;;;18.50;;
22881;SDS011;11608;50.894;5.296;2023-08-20T13:49:04;20.42;;;18.88;;
22881;SDS011;11608;50.894;5.296;2023-08-20T13:51:30;20.63;;;18.85;;
22881;SDS011;11608;50.894;5.296;2023-08-20T13:53:56;19.88;;;18.25;;
22881;SDS011;11608;50.894;5.296;2023-08-20T13:56:22;20.80;;;19.10;;
22881;SDS011;11608;50.894;5.296;2023-08-20T13:58:49;20.25;;;18.60;;
22881;SDS011;11608;50.894;5.296;2023-08-20T14:01:15;19.45;;;17.95;;
22881;SDS011;11608;50.894;5.296;2023-08-20T14:03:41;20.75;;;19.05;;
22881;SDS011;11608;50.894;5.296;2023-08-20T14:06:07;20.58;;;18.85;;
22881;SDS011;11608;50.894;5.296;2023-08-20T14:08:33;20.60;;;18.80;;
22881;SDS011;11608;50.894;5.296;2023-08-20T14:10:59;20.95;;;19.10;;
22881;SDS011;11608;50.894;5.296;2023-08-20T14:13:25;20.30;;;18.60;;
22881;SDS011;11608;50.894;5.296;2023-08-20T14:15:51;20.17;;;18.58;;
22881;SDS011;11608;50.894;5.296;2023-08-20T14:18:17;20.25;;;18.50;;
22881;SDS011;11608;50.894;5.296;2023-08-20T14:20:43;20.08;;;18.38;;
22881;SDS011;11608;50.894;5.296;2023-08-20T14:23:09;19.70;;;18.20;;
22881;SDS011;11608;50.894;5.296;2023-08-20T14:25:35;20.83;;;19.10;;
22881;SDS011;11608;50.894;5.296;2023-08-20T14:28:02;20.67;;;18.70;;
22881;SDS011;11608;50.894;5.296;2023-08-20T14:30:28;19.90;;;18.40;;
22881;SDS011;11608;50.894;5.296;2023-08-20T14:32:54;20.42;;;18.83;;
22881;SDS011;11608;50.894;5.296;2023-08-20T14:35:20;20.27;;;18.50;;
22881;SDS011;11608;50.894;5.296;2023-08-20T14:37:46;20.30;;;18.50;;
22881;SDS011;11608;50.894;5.296;2023-08-20T14:40:12;20.30;;;18.60;;
22881;SDS011;11608;50.894;5.296;2023-08-20T14:42:38;20.15;;;18.58;;
22881;SDS011;11608;50.894;5.296;2023-08-20T14:45:06;20.40;;;18.48;;
22881;SDS011;11608;50.894;5.296;2023-08-20T14:47:32;19.75;;;18.25;;
22881;SDS011;11608;50.894;5.296;2023-08-20T14:49:58;20.35;;;18.52;;